sensor_id;sensor_type;location;lat;lon;timestamp;temperature;humidity
65478;SHT31;53678;39.642;22.430;2022-08-01T00:00:37;29.59;46.88
65478;SHT31;53678;39.642;22.430;2022-08-01T00:03:03;29.59;47.07
65478;SHT31;53678;39.642;22.430;2022-08-01T00:05:29;29.57;47.07
65478;SHT31;53678;39.642;22.430;2022-08-01T00:07:55;29.53;47.03
65478;SHT31;53678;39.642;22.430;2022-08-01T00:10:21;29.57;46.47
65478;SHT31;53678;39.642;22.430;2022-08-01T00:12:47;29.52;46.49
65478;SHT31;53678;39.642;22.430;2022-08-01T00:15:15;29.45;46.58
65478;SHT31;53678;39.642;22.430;2022-08-01T00:17:42;29.47;46.50
65478;SHT31;53678;39.642;22.430;2022-08-01T00:20:12;29.46;46.48
65478;SHT31;53678;39.642;22.430;2022-08-01T00:22:38;29.30;46.79
65478;SHT31;53678;39.642;22.430;2022-08-01T00:25:05;29.19;46.92
65478;SHT31;53678;39.642;22.430;2022-08-01T00:27:31;29.23;46.50
65478;SHT31;53678;39.642;22.430;2022-08-01T00:29:58;29.25;46.37
65478;SHT31;53678;39.642;22.430;2022-08-01T00:32:24;29.19;46.05
65478;SHT31;53678;39.642;22.430;2022-08-01T00:34:50;29.12;45.84
65478;SHT31;53678;39.642;22.430;2022-08-01T00:37:16;29.01;46.17
65478;SHT31;53678;39.642;22.430;2022-08-01T00:39:42;28.98;46.37
65478;SHT31;53678;39.642;22.430;2022-08-01T00:42:10;28.86;46.94
65478;SHT31;53678;39.642;22.430;2022-08-01T00:44:36;28.72;47.37
65478;SHT31;53678;39.642;22.430;2022-08-01T00:47:03;28.75;47.24
65478;SHT31;53678;39.642;22.430;2022-08-01T00:49:29;28.70;47.63
65478;SHT31;53678;39.642;22.430;2022-08-01T00:51:56;28.64;47.52
65478;SHT31;53678;39.642;22.430;2022-08-01T00:54:25;28.68;46.93
65478;SHT31;53678;39.642;22.430;2022-08-01T00:56:52;28.71;46.42
65478;SHT31;53678;39.642;22.430;2022-08-01T00:59:21;28.71;46.41
65478;SHT31;53678;39.642;22.430;2022-08-01T01:01:47;28.67;46.08
65478;SHT31;53678;39.642;22.430;2022-08-01T01:04:13;28.80;45.57
65478;SHT31;53678;39.642;22.430;2022-08-01T01:12:22;28.59;45.80
65478;SHT31;53678;39.642;22.430;2022-08-01T01:15:08;28.63;45.74
65478;SHT31;53678;39.642;22.430;2022-08-01T01:17:41;28.51;45.76
65478;SHT31;53678;39.642;22.430;2022-08-01T01:20:11;28.54;45.66
65478;SHT31;53678;39.642;22.430;2022-08-01T01:30:36;28.33;45.45
65478;SHT31;53678;39.642;22.430;2022-08-01T01:33:06;28.37;45.31
65478;SHT31;53678;39.642;22.430;2022-08-01T01:35:40;28.22;45.26
65478;SHT31;53678;39.642;22.430;2022-08-01T01:38:18;28.22;45.37
65478;SHT31;53678;39.642;22.430;2022-08-01T01:40:46;28.22;45.26
65478;SHT31;53678;39.642;22.430;2022-08-01T01:43:14;28.19;45.33
65478;SHT31;53678;39.642;22.430;2022-08-01T01:45:42;28.14;45.19
65478;SHT31;53678;39.642;22.430;2022-08-01T01:48:09;28.19;45.23
65478;SHT31;53678;39.642;22.430;2022-08-01T01:50:37;28.12;45.25
65478;SHT31;53678;39.642;22.430;2022-08-01T01:53:05;28.16;45.01
65478;SHT31;53678;39.642;22.430;2022-08-01T01:55:32;28.26;44.58
65478;SHT31;53678;39.642;22.430;2022-08-01T01:58:00;28.14;44.06
65478;SHT31;53678;39.642;22.430;2022-08-01T02:00:26;28.12;44.12
65478;SHT31;53678;39.642;22.430;2022-08-01T02:02:55;28.13;43.79
65478;SHT31;53678;39.642;22.430;2022-08-01T02:05:23;28.17;43.18
65478;SHT31;53678;39.642;22.430;2022-08-01T02:07:50;28.14;42.98
65478;SHT31;53678;39.642;22.430;2022-08-01T02:10:18;28.14;42.52
65478;SHT31;53678;39.642;22.430;2022-08-01T02:12:45;28.22;42.26
65478;SHT31;53678;39.642;22.430;2022-08-01T02:15:13;28.12;42.19
65478;SHT31;53678;39.642;22.430;2022-08-01T02:17:43;28.13;42.05
65478;SHT31;53678;39.642;22.430;2022-08-01T02:20:10;28.19;41.79
65478;SHT31;53678;39.642;22.430;2022-08-01T02:22:47;28.05;41.50
65478;SHT31;53678;39.642;22.430;2022-08-01T02:25:22;28.12;40.99
65478;SHT31;53678;39.642;22.430;2022-08-01T02:27:58;28.20;40.85
65478;SHT31;53678;39.642;22.430;2022-08-01T02:30:31;28.23;40.71
65478;SHT31;53678;39.642;22.430;2022-08-01T02:33:02;28.09;41.07
65478;SHT31;53678;39.642;22.430;2022-08-01T02:35:31;27.95;42.17
65478;SHT31;53678;39.642;22.430;2022-08-01T02:38:00;27.85;42.71
65478;SHT31;53678;39.642;22.430;2022-08-01T02:40:28;27.82;42.52
65478;SHT31;53678;39.642;22.430;2022-08-01T02:42:56;28.02;40.65
65478;SHT31;53678;39.642;22.430;2022-08-01T02:45:25;28.12;40.09
65478;SHT31;53678;39.642;22.430;2022-08-01T02:47:58;28.16;39.98
65478;SHT31;53678;39.642;22.430;2022-08-01T02:50:26;28.20;39.89
65478;SHT31;53678;39.642;22.430;2022-08-01T02:52:55;28.06;40.22
65478;SHT31;53678;39.642;22.430;2022-08-01T02:55:22;28.23;40.02
65478;SHT31;53678;39.642;22.430;2022-08-01T02:57:51;28.22;40.10
65478;SHT31;53678;39.642;22.430;2022-08-01T03:00:19;28.19;39.97
65478;SHT31;53678;39.642;22.430;2022-08-01T03:02:46;28.20;39.96
65478;SHT31;53678;39.642;22.430;2022-08-01T03:05:14;28.13;40.09
65478;SHT31;53678;39.642;22.430;2022-08-01T03:07:42;28.13;39.94
65478;SHT31;53678;39.642;22.430;2022-08-01T03:10:10;28.01;40.20
65478;SHT31;53678;39.642;22.430;2022-08-01T03:12:37;28.12;39.83
65478;SHT31;53678;39.642;22.430;2022-08-01T03:15:05;28.13;39.88
65478;SHT31;53678;39.642;22.430;2022-08-01T03:17:32;28.08;39.77
65478;SHT31;53678;39.642;22.430;2022-08-01T03:20:01;27.92;39.82
65478;SHT31;53678;39.642;22.430;2022-08-01T03:22:29;27.98;39.81
65478;SHT31;53678;39.642;22.430;2022-08-01T03:24:58;27.98;40.01
65478;SHT31;53678;39.642;22.430;2022-08-01T03:27:25;27.98;39.92
65478;SHT31;53678;39.642;22.430;2022-08-01T03:29:51;28.06;39.92
65478;SHT31;53678;39.642;22.430;2022-08-01T03:32:21;27.93;40.06
65478;SHT31;53678;39.642;22.430;2022-08-01T03:34:48;27.91;40.34
65478;SHT31;53678;39.642;22.430;2022-08-01T03:37:24;27.93;40.13
65478;SHT31;53678;39.642;22.430;2022-08-01T03:39:54;28.01;40.22
65478;SHT31;53678;39.642;22.430;2022-08-01T03:42:31;27.95;40.34
65478;SHT31;53678;39.642;22.430;2022-08-01T03:45:02;27.92;40.34
65478;SHT31;53678;39.642;22.430;2022-08-01T03:47:32;27.88;40.51
65478;SHT31;53678;39.642;22.430;2022-08-01T03:50:02;27.81;40.68
65478;SHT31;53678;39.642;22.430;2022-08-01T03:52:30;27.71;40.94
65478;SHT31;53678;39.642;22.430;2022-08-01T03:55:02;27.64;40.92
65478;SHT31;53678;39.642;22.430;2022-08-01T03:57:29;27.75;40.80
65478;SHT31;53678;39.642;22.430;2022-08-01T03:59:57;27.65;40.99
65478;SHT31;53678;39.642;22.430;2022-08-01T04:02:23;27.69;41.00
65478;SHT31;53678;39.642;22.430;2022-08-01T04:04:49;27.62;41.00
65478;SHT31;53678;39.642;22.430;2022-08-01T04:07:23;27.66;40.67
65478;SHT31;53678;39.642;22.430;2022-08-01T04:09:49;27.68;40.91
65478;SHT31;53678;39.642;22.430;2022-08-01T04:12:16;27.64;40.89
65478;SHT31;53678;39.642;22.430;2022-08-01T04:14:41;27.82;40.66
65478;SHT31;53678;39.642;22.430;2022-08-01T04:17:07;27.71;40.57
65478;SHT31;53678;39.642;22.430;2022-08-01T04:19:33;27.72;40.66
65478;SHT31;53678;39.642;22.430;2022-08-01T04:22:00;27.66;40.82
65478;SHT31;53678;39.642;22.430;2022-08-01T04:24:29;27.73;40.82
65478;SHT31;53678;39.642;22.430;2022-08-01T04:26:56;27.69;40.84
65478;SHT31;53678;39.642;22.430;2022-08-01T04:29:25;27.64;40.81
65478;SHT31;53678;39.642;22.430;2022-08-01T04:31:53;27.48;40.93
65478;SHT31;53678;39.642;22.430;2022-08-01T04:34:22;27.43;41.11
65478;SHT31;53678;39.642;22.430;2022-08-01T04:36:51;27.72;40.95
65478;SHT31;53678;39.642;22.430;2022-08-01T04:39:18;27.66;40.86
65478;SHT31;53678;39.642;22.430;2022-08-01T04:41:46;27.68;40.82
65478;SHT31;53678;39.642;22.430;2022-08-01T04:44:13;27.62;40.87
65478;SHT31;53678;39.642;22.430;2022-08-01T04:46:40;27.57;40.79
65478;SHT31;53678;39.642;22.430;2022-08-01T04:49:07;27.54;41.01
65478;SHT31;53678;39.642;22.430;2022-08-01T04:51:34;27.69;40.86
65478;SHT31;53678;39.642;22.430;2022-08-01T04:54:00;27.47;41.45
65478;SHT31;53678;39.642;22.430;2022-08-01T04:56:27;27.52;41.13
65478;SHT31;53678;39.642;22.430;2022-08-01T04:58:53;27.52;41.13
65478;SHT31;53678;39.642;22.430;2022-08-01T05:01:37;27.44;41.38
65478;SHT31;53678;39.642;22.430;2022-08-01T05:04:03;27.45;41.20
65478;SHT31;53678;39.642;22.430;2022-08-01T05:06:29;27.55;41.04
65478;SHT31;53678;39.642;22.430;2022-08-01T05:08:55;27.47;41.34
65478;SHT31;53678;39.642;22.430;2022-08-01T05:11:21;27.55;40.82
65478;SHT31;53678;39.642;22.430;2022-08-01T05:13:48;27.61;40.98
65478;SHT31;53678;39.642;22.430;2022-08-01T05:16:14;27.48;40.71
65478;SHT31;53678;39.642;22.430;2022-08-01T05:18:40;27.54;40.55
65478;SHT31;53678;39.642;22.430;2022-08-01T05:21:05;27.48;40.70
65478;SHT31;53678;39.642;22.430;2022-08-01T05:23:31;27.51;40.79
65478;SHT31;53678;39.642;22.430;2022-08-01T05:25:57;27.58;40.73
65478;SHT31;53678;39.642;22.430;2022-08-01T05:28:23;27.55;40.69
65478;SHT31;53678;39.642;22.430;2022-08-01T05:30:49;27.72;40.64
65478;SHT31;53678;39.642;22.430;2022-08-01T05:33:15;27.57;40.88
65478;SHT31;53678;39.642;22.430;2022-08-01T05:35:41;27.59;40.41
65478;SHT31;53678;39.642;22.430;2022-08-01T05:38:07;27.50;40.96
65478;SHT31;53678;39.642;22.430;2022-08-01T05:40:33;27.71;40.65
65478;SHT31;53678;39.642;22.430;2022-08-01T05:42:59;27.77;40.55
65478;SHT31;53678;39.642;22.430;2022-08-01T05:45:25;27.73;40.25
65478;SHT31;53678;39.642;22.430;2022-08-01T05:47:51;27.50;40.58
65478;SHT31;53678;39.642;22.430;2022-08-01T05:50:17;27.85;40.19
65478;SHT31;53678;39.642;22.430;2022-08-01T05:52:43;27.65;40.28
65478;SHT31;53678;39.642;22.430;2022-08-01T05:55:09;27.64;40.24
65478;SHT31;53678;39.642;22.430;2022-08-01T05:57:35;27.75;40.25
65478;SHT31;53678;39.642;22.430;2022-08-01T06:00:01;27.93;39.52
65478;SHT31;53678;39.642;22.430;2022-08-01T06:02:40;27.69;39.85
65478;SHT31;53678;39.642;22.430;2022-08-01T06:05:07;27.99;39.30
65478;SHT31;53678;39.642;22.430;2022-08-01T06:07:33;27.78;39.95
65478;SHT31;53678;39.642;22.430;2022-08-01T06:09:59;27.95;39.60
65478;SHT31;53678;39.642;22.430;2022-08-01T06:12:25;27.93;40.06
65478;SHT31;53678;39.642;22.430;2022-08-01T06:14:51;27.62;40.44
65478;SHT31;53678;39.642;22.430;2022-08-01T06:17:17;28.29;39.98
65478;SHT31;53678;39.642;22.430;2022-08-01T06:19:43;28.19;39.98
65478;SHT31;53678;39.642;22.430;2022-08-01T06:22:09;28.78;39.07
65478;SHT31;53678;39.642;22.430;2022-08-01T06:24:35;28.95;37.69
65478;SHT31;53678;39.642;22.430;2022-08-01T06:27:02;28.29;38.76
65478;SHT31;53678;39.642;22.430;2022-08-01T06:29:30;28.88;38.14
65478;SHT31;53678;39.642;22.430;2022-08-01T06:31:57;28.63;39.65
65478;SHT31;53678;39.642;22.430;2022-08-01T06:34:23;28.44;39.40
65478;SHT31;53678;39.642;22.430;2022-08-01T06:36:49;28.30;39.56
65478;SHT31;53678;39.642;22.430;2022-08-01T06:39:15;28.41;39.26
65478;SHT31;53678;39.642;22.430;2022-08-01T06:41:41;29.02;38.44
65478;SHT31;53678;39.642;22.430;2022-08-01T06:44:07;28.88;36.57
65478;SHT31;53678;39.642;22.430;2022-08-01T06:46:34;29.20;37.24
65478;SHT31;53678;39.642;22.430;2022-08-01T06:49:00;28.82;37.78
65478;SHT31;53678;39.642;22.430;2022-08-01T06:51:26;29.19;37.76
65478;SHT31;53678;39.642;22.430;2022-08-01T06:53:52;29.47;36.88
65478;SHT31;53678;39.642;22.430;2022-08-01T06:56:19;29.33;35.20
65478;SHT31;53678;39.642;22.430;2022-08-01T06:58:45;29.25;34.46
65478;SHT31;53678;39.642;22.430;2022-08-01T07:01:11;29.19;33.99
65478;SHT31;53678;39.642;22.430;2022-08-01T07:03:37;29.19;34.81
65478;SHT31;53678;39.642;22.430;2022-08-01T07:06:03;29.08;34.84
65478;SHT31;53678;39.642;22.430;2022-08-01T07:08:29;28.98;35.20
65478;SHT31;53678;39.642;22.430;2022-08-01T07:10:55;28.92;33.86
65478;SHT31;53678;39.642;22.430;2022-08-01T07:13:26;29.23;34.17
65478;SHT31;53678;39.642;22.430;2022-08-01T07:15:52;28.65;34.29
65478;SHT31;53678;39.642;22.430;2022-08-01T07:18:19;29.22;34.32
65478;SHT31;53678;39.642;22.430;2022-08-01T07:20:45;29.40;33.24
65478;SHT31;53678;39.642;22.430;2022-08-01T07:23:14;29.88;32.89
65478;SHT31;53678;39.642;22.430;2022-08-01T07:25:40;29.28;33.25
65478;SHT31;53678;39.642;22.430;2022-08-01T07:28:06;29.16;32.93
65478;SHT31;53678;39.642;22.430;2022-08-01T07:30:32;29.35;33.39
65478;SHT31;53678;39.642;22.430;2022-08-01T07:33:00;29.38;33.13
65478;SHT31;53678;39.642;22.430;2022-08-01T07:35:26;29.29;33.36
65478;SHT31;53678;39.642;22.430;2022-08-01T07:37:52;29.42;32.97
65478;SHT31;53678;39.642;22.430;2022-08-01T07:40:19;29.50;32.91
65478;SHT31;53678;39.642;22.430;2022-08-01T07:42:46;29.53;32.81
65478;SHT31;53678;39.642;22.430;2022-08-01T07:45:12;30.05;32.53
65478;SHT31;53678;39.642;22.430;2022-08-01T07:47:39;29.29;33.05
65478;SHT31;53678;39.642;22.430;2022-08-01T07:50:05;29.69;32.71
65478;SHT31;53678;39.642;22.430;2022-08-01T07:52:32;29.57;32.17
65478;SHT31;53678;39.642;22.430;2022-08-01T07:54:58;29.87;31.99
65478;SHT31;53678;39.642;22.430;2022-08-01T07:57:25;30.34;31.92
65478;SHT31;53678;39.642;22.430;2022-08-01T07:59:51;29.70;32.30
65478;SHT31;53678;39.642;22.430;2022-08-01T08:02:17;29.97;31.89
65478;SHT31;53678;39.642;22.430;2022-08-01T08:04:43;30.32;31.30
65478;SHT31;53678;39.642;22.430;2022-08-01T08:07:09;29.93;32.32
65478;SHT31;53678;39.642;22.430;2022-08-01T08:09:35;29.77;31.94
65478;SHT31;53678;39.642;22.430;2022-08-01T08:12:01;30.94;31.82
65478;SHT31;53678;39.642;22.430;2022-08-01T08:14:27;31.13;31.48
65478;SHT31;53678;39.642;22.430;2022-08-01T08:16:53;29.97;32.49
65478;SHT31;53678;39.642;22.430;2022-08-01T08:19:19;30.58;31.70
65478;SHT31;53678;39.642;22.430;2022-08-01T08:21:44;30.76;31.53
65478;SHT31;53678;39.642;22.430;2022-08-01T08:24:10;30.23;32.16
65478;SHT31;53678;39.642;22.430;2022-08-01T08:26:46;30.45;31.99
65478;SHT31;53678;39.642;22.430;2022-08-01T08:29:12;30.83;31.58
65478;SHT31;53678;39.642;22.430;2022-08-01T08:31:38;31.24;31.80
65478;SHT31;53678;39.642;22.430;2022-08-01T08:34:04;30.83;32.10
65478;SHT31;53678;39.642;22.430;2022-08-01T08:36:30;31.37;31.78
65478;SHT31;53678;39.642;22.430;2022-08-01T08:38:57;30.35;32.65
65478;SHT31;53678;39.642;22.430;2022-08-01T08:41:24;31.27;31.52
65478;SHT31;53678;39.642;22.430;2022-08-01T08:43:50;31.13;31.60
65478;SHT31;53678;39.642;22.430;2022-08-01T08:46:16;31.29;31.26
65478;SHT31;53678;39.642;22.430;2022-08-01T08:48:43;32.06;30.27
65478;SHT31;53678;39.642;22.430;2022-08-01T08:51:10;31.61;30.94
65478;SHT31;53678;39.642;22.430;2022-08-01T08:53:39;31.41;30.85
65478;SHT31;53678;39.642;22.430;2022-08-01T08:56:13;31.42;30.84
65478;SHT31;53678;39.642;22.430;2022-08-01T08:58:44;31.24;31.61
65478;SHT31;53678;39.642;22.430;2022-08-01T09:01:11;32.01;31.18
65478;SHT31;53678;39.642;22.430;2022-08-01T09:03:39;31.00;32.07
65478;SHT31;53678;39.642;22.430;2022-08-01T09:06:05;30.97;32.36
65478;SHT31;53678;39.642;22.430;2022-08-01T09:08:32;31.82;31.50
65478;SHT31;53678;39.642;22.430;2022-08-01T09:10:59;32.20;30.76
65478;SHT31;53678;39.642;22.430;2022-08-01T09:13:25;31.61;31.44
65478;SHT31;53678;39.642;22.430;2022-08-01T09:15:54;31.09;32.22
65478;SHT31;53678;39.642;22.430;2022-08-01T09:21:18;32.25;30.90
65478;SHT31;53678;39.642;22.430;2022-08-01T09:23:51;32.47;31.50
65478;SHT31;53678;39.642;22.430;2022-08-01T09:26:33;31.86;31.80
65478;SHT31;53678;39.642;22.430;2022-08-01T09:29:00;32.29;30.86
65478;SHT31;53678;39.642;22.430;2022-08-01T09:31:28;31.96;30.99
65478;SHT31;53678;39.642;22.430;2022-08-01T09:33:59;32.41;30.84
65478;SHT31;53678;39.642;22.430;2022-08-01T09:36:45;33.10;30.37
65478;SHT31;53678;39.642;22.430;2022-08-01T09:39:14;32.26;30.60
65478;SHT31;53678;39.642;22.430;2022-08-01T09:41:41;32.66;31.00
65478;SHT31;53678;39.642;22.430;2022-08-01T09:44:07;32.77;31.12
65478;SHT31;53678;39.642;22.430;2022-08-01T09:46:33;33.10;30.79
65478;SHT31;53678;39.642;22.430;2022-08-01T09:49:04;32.84;31.51
65478;SHT31;53678;39.642;22.430;2022-08-01T09:53:57;33.17;30.56
65478;SHT31;53678;39.642;22.430;2022-08-01T09:56:23;32.92;31.06
65478;SHT31;53678;39.642;22.430;2022-08-01T09:58:57;32.73;31.12
65478;SHT31;53678;39.642;22.430;2022-08-01T10:01:23;32.73;31.30
65478;SHT31;53678;39.642;22.430;2022-08-01T10:04:09;32.83;31.03
65478;SHT31;53678;39.642;22.430;2022-08-01T10:06:36;33.07;30.75
65478;SHT31;53678;39.642;22.430;2022-08-01T10:09:03;32.29;32.13
65478;SHT31;53678;39.642;22.430;2022-08-01T10:11:29;32.84;31.19
65478;SHT31;53678;39.642;22.430;2022-08-01T10:13:58;32.50;31.71
65478;SHT31;53678;39.642;22.430;2022-08-01T10:16:26;32.46;31.73
65478;SHT31;53678;39.642;22.430;2022-08-01T10:18:53;32.73;31.53
65478;SHT31;53678;39.642;22.430;2022-08-01T10:21:20;32.70;31.47
65478;SHT31;53678;39.642;22.430;2022-08-01T10:23:48;33.17;31.52
65478;SHT31;53678;39.642;22.430;2022-08-01T10:26:15;32.97;31.52
65478;SHT31;53678;39.642;22.430;2022-08-01T10:28:44;32.94;31.86
65478;SHT31;53678;39.642;22.430;2022-08-01T10:31:11;32.84;31.40
65478;SHT31;53678;39.642;22.430;2022-08-01T10:33:37;32.80;31.64
65478;SHT31;53678;39.642;22.430;2022-08-01T10:36:05;32.78;31.86
65478;SHT31;53678;39.642;22.430;2022-08-01T10:38:31;32.43;32.28
65478;SHT31;53678;39.642;22.430;2022-08-01T10:40:59;33.08;31.45
65478;SHT31;53678;39.642;22.430;2022-08-01T10:43:27;33.00;31.91
65478;SHT31;53678;39.642;22.430;2022-08-01T10:45:54;33.26;31.47
65478;SHT31;53678;39.642;22.430;2022-08-01T10:48:44;33.26;31.37
65478;SHT31;53678;39.642;22.430;2022-08-01T10:51:14;33.53;30.79
65478;SHT31;53678;39.642;22.430;2022-08-01T10:53:46;33.65;30.78
65478;SHT31;53678;39.642;22.430;2022-08-01T10:56:13;33.62;31.06
65478;SHT31;53678;39.642;22.430;2022-08-01T10:58:41;33.56;31.23
65478;SHT31;53678;39.642;22.430;2022-08-01T11:01:22;33.36;31.68
65478;SHT31;53678;39.642;22.430;2022-08-01T11:06:37;33.83;31.42
65478;SHT31;53678;39.642;22.430;2022-08-01T11:12:01;33.74;31.21
65478;SHT31;53678;39.642;22.430;2022-08-01T11:14:28;33.62;31.70
65478;SHT31;53678;39.642;22.430;2022-08-01T11:16:55;33.99;30.87
65478;SHT31;53678;39.642;22.430;2022-08-01T11:19:21;33.79;32.02
65478;SHT31;53678;39.642;22.430;2022-08-01T11:27:19;33.77;31.46
65478;SHT31;53678;39.642;22.430;2022-08-01T11:32:48;33.24;32.29
65478;SHT31;53678;39.642;22.430;2022-08-01T11:35:14;32.78;32.81
65478;SHT31;53678;39.642;22.430;2022-08-01T11:37:41;33.43;32.16
65478;SHT31;53678;39.642;22.430;2022-08-01T11:40:26;33.66;32.40
65478;SHT31;53678;39.642;22.430;2022-08-01T11:45:50;33.03;34.42
65478;SHT31;53678;39.642;22.430;2022-08-01T11:48:24;33.56;33.40
65478;SHT31;53678;39.642;22.430;2022-08-01T11:50:52;33.39;33.08
65478;SHT31;53678;39.642;22.430;2022-08-01T11:53:19;33.10;33.53
65478;SHT31;53678;39.642;22.430;2022-08-01T11:55:54;33.34;33.16
65478;SHT31;53678;39.642;22.430;2022-08-01T11:58:25;33.62;33.39
65478;SHT31;53678;39.642;22.430;2022-08-01T12:03:26;33.72;33.17
65478;SHT31;53678;39.642;22.430;2022-08-01T12:05:54;33.12;33.69
65478;SHT31;53678;39.642;22.430;2022-08-01T12:08:29;32.63;34.82
65478;SHT31;53678;39.642;22.430;2022-08-01T12:10:55;32.63;35.12
65478;SHT31;53678;39.642;22.430;2022-08-01T12:13:21;32.77;34.41
65478;SHT31;53678;39.642;22.430;2022-08-01T12:15:48;33.36;33.90
65478;SHT31;53678;39.642;22.430;2022-08-01T12:18:16;33.25;33.75
65478;SHT31;53678;39.642;22.430;2022-08-01T12:20:44;33.72;33.76
65478;SHT31;53678;39.642;22.430;2022-08-01T12:23:12;33.76;33.31
65478;SHT31;53678;39.642;22.430;2022-08-01T12:25:39;33.58;34.29
65478;SHT31;53678;39.642;22.430;2022-08-01T12:28:08;33.79;33.62
65478;SHT31;53678;39.642;22.430;2022-08-01T12:30:35;33.48;33.95
65478;SHT31;53678;39.642;22.430;2022-08-01T12:33:03;32.95;34.75
65478;SHT31;53678;39.642;22.430;2022-08-01T12:35:31;33.12;34.29
65478;SHT31;53678;39.642;22.430;2022-08-01T12:38:02;33.08;34.24
65478;SHT31;53678;39.642;22.430;2022-08-01T12:40:34;33.38;34.05
65478;SHT31;53678;39.642;22.430;2022-08-01T12:43:06;33.35;34.33
65478;SHT31;53678;39.642;22.430;2022-08-01T12:45:40;33.32;34.17
65478;SHT31;53678;39.642;22.430;2022-08-01T12:48:12;33.18;34.08
65478;SHT31;53678;39.642;22.430;2022-08-01T12:50:41;33.26;33.92
65478;SHT31;53678;39.642;22.430;2022-08-01T12:53:08;33.28;34.46
65478;SHT31;53678;39.642;22.430;2022-08-01T12:55:44;33.07;34.28
65478;SHT31;53678;39.642;22.430;2022-08-01T12:58:13;33.35;34.57
65478;SHT31;53678;39.642;22.430;2022-08-01T13:00:40;32.98;34.46
65478;SHT31;53678;39.642;22.430;2022-08-01T13:03:13;32.78;34.83
65478;SHT31;53678;39.642;22.430;2022-08-01T13:05:51;33.19;34.24
65478;SHT31;53678;39.642;22.430;2022-08-01T13:08:24;33.15;34.07
65478;SHT31;53678;39.642;22.430;2022-08-01T13:11:09;33.05;34.53
65478;SHT31;53678;39.642;22.430;2022-08-01T13:13:41;32.95;34.50
65478;SHT31;53678;39.642;22.430;2022-08-01T13:16:09;32.94;34.59
65478;SHT31;53678;39.642;22.430;2022-08-01T13:18:36;33.39;34.61
65478;SHT31;53678;39.642;22.430;2022-08-01T13:21:31;33.24;33.45
65478;SHT31;53678;39.642;22.430;2022-08-01T13:24:05;33.22;34.00
65478;SHT31;53678;39.642;22.430;2022-08-01T13:26:50;33.05;33.62
65478;SHT31;53678;39.642;22.430;2022-08-01T13:29:21;33.00;34.38
65478;SHT31;53678;39.642;22.430;2022-08-01T13:31:48;33.15;33.52
65478;SHT31;53678;39.642;22.430;2022-08-01T13:34:15;32.95;33.74
65478;SHT31;53678;39.642;22.430;2022-08-01T13:36:41;32.76;34.06
65478;SHT31;53678;39.642;22.430;2022-08-01T13:39:08;32.84;34.16
65478;SHT31;53678;39.642;22.430;2022-08-01T13:41:53;33.05;33.74
65478;SHT31;53678;39.642;22.430;2022-08-01T13:44:18;33.01;33.53
65478;SHT31;53678;39.642;22.430;2022-08-01T13:46:45;32.94;33.69
65478;SHT31;53678;39.642;22.430;2022-08-01T13:49:13;33.08;34.07
65478;SHT31;53678;39.642;22.430;2022-08-01T13:51:41;33.14;33.26
65478;SHT31;53678;39.642;22.430;2022-08-01T13:54:07;32.91;33.94
65478;SHT31;53678;39.642;22.430;2022-08-01T13:56:34;32.92;34.12
65478;SHT31;53678;39.642;22.430;2022-08-01T13:59:00;32.94;33.61
65478;SHT31;53678;39.642;22.430;2022-08-01T14:01:25;32.83;33.91
65478;SHT31;53678;39.642;22.430;2022-08-01T14:03:52;33.14;34.06
65478;SHT31;53678;39.642;22.430;2022-08-01T14:06:19;33.05;34.01
65478;SHT31;53678;39.642;22.430;2022-08-01T14:08:48;33.10;33.91
65478;SHT31;53678;39.642;22.430;2022-08-01T14:11:15;32.64;34.50
65478;SHT31;53678;39.642;22.430;2022-08-01T14:13:41;32.56;34.42
65478;SHT31;53678;39.642;22.430;2022-08-01T14:16:07;32.56;34.32
65478;SHT31;53678;39.642;22.430;2022-08-01T14:18:33;32.55;34.48
65478;SHT31;53678;39.642;22.430;2022-08-01T14:20:59;32.73;34.35
65478;SHT31;53678;39.642;22.430;2022-08-01T14:23:26;32.77;34.35
65478;SHT31;53678;39.642;22.430;2022-08-01T14:25:52;32.67;34.10
65478;SHT31;53678;39.642;22.430;2022-08-01T14:28:18;32.81;33.96
65478;SHT31;53678;39.642;22.430;2022-08-01T14:30:44;32.61;34.19
65478;SHT31;53678;39.642;22.430;2022-08-01T14:33:11;32.43;34.48
65478;SHT31;53678;39.642;22.430;2022-08-01T14:35:37;32.64;34.07
65478;SHT31;53678;39.642;22.430;2022-08-01T14:38:03;32.68;34.13
65478;SHT31;53678;39.642;22.430;2022-08-01T14:40:29;32.71;34.15
65478;SHT31;53678;39.642;22.430;2022-08-01T14:42:55;32.83;33.96
65478;SHT31;53678;39.642;22.430;2022-08-01T14:45:21;33.08;33.78
65478;SHT31;53678;39.642;22.430;2022-08-01T14:47:47;32.64;33.93
65478;SHT31;53678;39.642;22.430;2022-08-01T14:50:15;32.60;34.25
65478;SHT31;53678;39.642;22.430;2022-08-01T14:52:42;32.56;33.72
65478;SHT31;53678;39.642;22.430;2022-08-01T14:55:09;32.52;33.79
65478;SHT31;53678;39.642;22.430;2022-08-01T14:57:37;32.66;34.29
65478;SHT31;53678;39.642;22.430;2022-08-01T15:00:05;32.27;34.25
65478;SHT31;53678;39.642;22.430;2022-08-01T15:02:32;32.33;34.12
65478;SHT31;53678;39.642;22.430;2022-08-01T15:04:58;32.36;34.10
65478;SHT31;53678;39.642;22.430;2022-08-01T15:07:24;32.30;34.16
65478;SHT31;53678;39.642;22.430;2022-08-01T15:09:50;32.10;34.29
65478;SHT31;53678;39.642;22.430;2022-08-01T15:12:16;32.26;34.50
65478;SHT31;53678;39.642;22.430;2022-08-01T15:14:42;32.35;34.52
65478;SHT31;53678;39.642;22.430;2022-08-01T15:17:19;32.49;34.35
65478;SHT31;53678;39.642;22.430;2022-08-01T15:19:52;32.25;34.53
65478;SHT31;53678;39.642;22.430;2022-08-01T15:22:20;32.25;34.61
65478;SHT31;53678;39.642;22.430;2022-08-01T15:24:47;32.05;34.46
65478;SHT31;53678;39.642;22.430;2022-08-01T15:27:14;31.84;34.89
65478;SHT31;53678;39.642;22.430;2022-08-01T15:29:40;31.88;35.02
65478;SHT31;53678;39.642;22.430;2022-08-01T15:32:08;31.82;34.52
65478;SHT31;53678;39.642;22.430;2022-08-01T15:34:35;31.77;34.89
65478;SHT31;53678;39.642;22.430;2022-08-01T15:37:02;31.95;34.71
65478;SHT31;53678;39.642;22.430;2022-08-01T15:39:29;31.71;34.59
65478;SHT31;53678;39.642;22.430;2022-08-01T15:42:02;31.74;34.73
65478;SHT31;53678;39.642;22.430;2022-08-01T15:44:28;31.90;34.58
65478;SHT31;53678;39.642;22.430;2022-08-01T15:46:54;31.99;34.40
65478;SHT31;53678;39.642;22.430;2022-08-01T15:49:20;31.81;34.69
65478;SHT31;53678;39.642;22.430;2022-08-01T15:51:48;31.74;34.88
65478;SHT31;53678;39.642;22.430;2022-08-01T15:54:16;31.74;35.29
65478;SHT31;53678;39.642;22.430;2022-08-01T15:56:42;31.71;35.38
65478;SHT31;53678;39.642;22.430;2022-08-01T15:59:08;31.58;35.51